Time;durP1;ratioP1;P1;durP2;ratioP2;P2;SDS_P1;SDS_P2;PMS_P1;PMS_P2;Temp;Humidity;BMP_temperature;BMP_pressure;BME280_temperature;BME280_humidity;BME280_pressure;Samples;Min_cycle;Max_cycle;Signal;HPM_P1;HPM_P2
2022/04/04 00:02:14;;;;;;;5.65;3.00;;;2.50;99.90;;;;;;5049620;28;20044;-73
2022/04/04 00:04:40;;;;;;;5.10;2.78;;;2.60;99.90;;;;;;5015073;28;20060;-77
2022/04/04 00:07:06;;;;;;;6.28;2.60;;;2.60;99.90;;;;;;5049745;28;20120;-70
2022/04/04 00:09:32;;;;;;;6.63;2.42;;;2.60;99.90;;;;;;5049359;28;20725;-71
2022/04/04 00:11:58;;;;;;;5.03;2.70;;;3.20;99.90;;;;;;5031633;28;20060;-72
2022/04/04 00:14:24;;;;;;;8.00;2.80;;;2.60;99.90;;;;;;5049726;28;20084;-72
2022/04/04 00:16:50;;;;;;;8.30;2.90;;;2.60;99.90;;;;;;5031431;28;20176;-71
2022/04/04 00:19:16;;;;;;;9.05;2.42;;;2.50;99.90;;;;;;5049702;28;20466;-70
2022/04/04 00:21:42;;;;;;;7.60;3.30;;;2.60;99.90;;;;;;5049575;28;20119;-70
2022/04/04 00:24:08;;;;;;;5.85;3.38;;;2.60;99.90;;;;;;5048847;28;20040;-71
2022/04/04 00:26:34;;;;;;;5.30;2.60;;;2.60;99.90;;;;;;5049354;28;20412;-71
2022/04/04 00:29:00;;;;;;;7.90;3.35;;;2.60;99.90;;;;;;5049693;28;20037;-72
2022/04/04 00:31:26;;;;;;;6.93;3.00;;;2.60;99.90;;;;;;5048954;28;20049;-73
2022/04/04 00:33:52;;;;;;;7.13;3.30;;;2.60;99.90;;;;;;5049308;28;20088;-72
2022/04/04 00:36:18;;;;;;;6.88;2.85;;;2.60;99.90;;;;;;5049352;28;20076;-72
2022/04/04 00:38:44;;;;;;;6.22;3.08;;;2.60;99.90;;;;;;5049063;28;20055;-71
2022/04/04 00:41:12;;;;;;;6.43;2.85;;;2.60;99.90;;;;;;5048893;28;20548;-72
2022/04/04 00:43:38;;;;;;;9.43;3.58;;;2.60;99.90;;;;;;5049377;28;20041;-73
2022/04/04 00:46:05;;;;;;;7.35;3.15;;;2.70;99.90;;;;;;5049073;28;20093;-70
2022/04/04 00:48:30;;;;;;;11.60;4.22;;;2.70;99.90;;;;;;5049435;28;20045;-70
2022/04/04 00:50:56;;;;;;;6.68;3.28;;;2.70;99.90;;;;;;5048944;28;20163;-71
2022/04/04 00:53:22;;;;;;;6.55;3.63;;;2.80;99.90;;;;;;5049474;28;20086;-72
2022/04/04 00:55:48;;;;;;;6.30;3.47;;;2.80;99.90;;;;;;5049269;28;20053;-69
2022/04/04 00:58:17;;;;;;;10.68;3.65;;;2.80;99.90;;;;;;5014264;28;20056;-71
2022/04/04 01:00:45;;;;;;;7.38;3.47;;;2.90;99.90;;;;;;5031412;28;20048;-72
2022/04/04 01:03:11;;;;;;;7.32;3.53;;;2.90;99.90;;;;;;5048730;28;20532;-71
2022/04/04 01:05:36;;;;;;;6.38;3.67;;;2.90;99.90;;;;;;5051842;28;20179;-71
2022/04/04 01:08:02;;;;;;;9.10;4.20;;;3.00;99.90;;;;;;5035538;28;20045;-73
2022/04/04 01:10:29;;;;;;;10.93;4.50;;;3.00;99.90;;;;;;5035474;28;20535;-71
2022/04/04 01:12:55;;;;;;;6.30;3.63;;;3.00;99.90;;;;;;5034468;28;20053;-71
2022/04/04 01:15:23;;;;;;;10.27;4.30;;;3.10;99.90;;;;;;5034653;28;20079;-71
2022/04/04 01:17:52;;;;;;;11.32;4.05;;;3.10;99.90;;;;;;5052988;28;20045;-70
2022/04/04 01:20:19;;;;;;;8.98;4.90;;;3.20;99.90;;;;;;5052112;28;20048;-71
2022/04/04 01:22:48;;;;;;;10.32;4.60;;;3.20;99.90;;;;;;5034240;28;20048;-70
2022/04/04 01:25:16;;;;;;;11.25;5.80;;;3.30;99.90;;;;;;5034513;28;20044;-71
2022/04/04 01:27:46;;;;;;;10.38;5.63;;;3.30;99.90;;;;;;5052614;28;20055;-70
2022/04/04 01:30:12;;;;;;;10.55;6.65;;;3.30;99.90;;;;;;5052795;28;20087;-71
2022/04/04 01:32:38;;;;;;;14.15;6.25;;;3.40;99.90;;;;;;5052670;28;20140;-74
2022/04/04 01:35:05;;;;;;;11.77;6.25;;;3.40;99.90;;;;;;5051699;28;20563;-73
2022/04/04 01:37:31;;;;;;;13.43;6.18;;;3.50;99.90;;;;;;5052654;28;20045;-70
2022/04/04 01:39:58;;;;;;;17.77;7.65;;;3.50;99.90;;;;;;5052631;28;20179;-70
2022/04/04 01:42:24;;;;;;;10.48;7.10;;;3.60;99.90;;;;;;5052441;28;20056;-71
2022/04/04 01:44:50;;;;;;;14.32;7.70;;;3.60;99.90;;;;;;5051739;28;20037;-70
2022/04/04 01:47:15;;;;;;;12.13;7.25;;;3.60;99.90;;;;;;5034539;28;20057;-70
2022/04/04 01:49:41;;;;;;;14.60;8.15;;;3.60;99.90;;;;;;5018357;28;20080;-69
2022/04/04 01:52:07;;;;;;;14.77;8.98;;;3.70;99.90;;;;;;5034570;28;20064;-71
2022/04/04 01:54:32;;;;;;;19.02;9.23;;;3.70;99.90;;;;;;5034532;28;20045;-71
2022/04/04 01:56:58;;;;;;;17.80;8.77;;;4.30;99.90;;;;;;5051461;28;20641;-71
2022/04/04 01:59:24;;;;;;;14.98;8.90;;;3.80;99.90;;;;;;5052076;28;20056;-69
2022/04/04 02:01:49;;;;;;;14.98;8.55;;;3.80;99.90;;;;;;5032825;28;20052;-69
2022/04/04 02:04:15;;;;;;;14.25;8.98;;;3.80;99.90;;;;;;5051697;28;20056;-70
2022/04/04 02:06:41;;;;;;;17.38;9.45;;;4.90;99.90;;;;;;5033230;28;20084;-69
2022/04/04 02:09:07;;;;;;;13.32;7.95;;;3.80;99.90;;;;;;5050512;28;20048;-68
2022/04/04 02:11:33;;;;;;;18.70;8.27;;;3.80;99.90;;;;;;5051167;28;20037;-68
2022/04/04 02:14:02;;;;;;;15.23;9.82;;;3.90;99.90;;;;;;5033006;28;20056;-66
2022/04/04 02:16:27;;;;;;;15.40;7.78;;;3.90;99.90;;;;;;5013368;28;20064;-67
2022/04/04 02:18:53;;;;;;;18.52;9.93;;;3.90;99.90;;;;;;5033513;28;20761;-68
2022/04/04 02:21:19;;;;;;;17.85;10.10;;;3.90;99.90;;;;;;5033549;28;20057;-65
2022/04/04 02:23:45;;;;;;;14.57;8.30;;;3.90;99.90;;;;;;5033068;28;20457;-65
2022/04/04 02:26:11;;;;;;;19.60;8.90;;;3.90;99.90;;;;;;5033384;28;20060;-68
2022/04/04 02:28:37;;;;;;;15.48;9.55;;;4.60;99.90;;;;;;5033674;28;20084;-68
2022/04/04 02:31:02;;;;;;;16.25;9.05;;;3.80;99.90;;;;;;5051173;28;20128;-70
2022/04/04 02:33:29;;;;;;;15.80;8.68;;;3.90;99.90;;;;;;5051609;28;20040;-70
2022/04/04 02:35:56;;;;;;;16.23;10.73;;;3.80;99.90;;;;;;5033460;28;20049;-70
2022/04/04 02:38:24;;;;;;;17.65;10.27;;;3.90;99.90;;;;;;5051036;28;20049;-69
2022/04/04 02:40:50;;;;;;;15.82;8.15;;;3.90;99.90;;;;;;5051398;28;20059;-69
2022/04/04 02:43:17;;;;;;;17.25;10.43;;;3.90;99.90;;;;;;5050935;28;20078;-73
2022/04/04 02:45:43;;;;;;;17.05;7.80;;;3.90;99.90;;;;;;5032908;28;20084;-70
2022/04/04 02:48:09;;;;;;;16.77;11.00;;;3.90;99.90;;;;;;5033755;28;20076;-70
2022/04/04 02:50:34;;;;;;;17.70;10.48;;;3.90;99.90;;;;;;5051384;28;20127;-70
2022/04/04 02:53:01;;;;;;;19.27;10.75;;;3.90;99.90;;;;;;5033230;28;20179;-70
2022/04/04 02:58:11;;;;;;;17.20;9.80;;;4.00;99.90;;;;;;5050789;28;20096;-70
2022/04/04 03:00:37;;;;;;;15.07;8.70;;;4.00;99.90;;;;;;5032567;28;20076;-70
2022/04/04 03:03:02;;;;;;;15.40;8.40;;;4.00;99.90;;;;;;5050936;28;20518;-72
2022/04/04 03:05:28;;;;;;;15.95;9.57;;;4.10;99.90;;;;;;5032967;28;20053;-71
2022/04/04 03:07:54;;;;;;;16.90;9.52;;;4.10;99.90;;;;;;5033314;28;20052;-71
2022/04/04 03:10:20;;;;;;;15.95;9.25;;;4.10;99.90;;;;;;5051009;28;20248;-71
2022/04/04 03:12:48;;;;;;;20.52;11.27;;;4.20;99.90;;;;;;5050618;28;20040;-70
2022/04/04 03:15:21;;;;;;;18.52;9.27;;;4.10;99.90;;;;;;5032344;28;20057;-72
2022/04/04 03:17:50;;;;;;;16.77;10.48;;;4.20;99.90;;;;;;5050504;28;20048;-71
2022/04/04 03:20:17;;;;;;;19.40;10.35;;;4.20;99.90;;;;;;5050737;28;20045;-71
2022/04/04 03:22:44;;;;;;;25.48;9.50;;;4.20;99.90;;;;;;5033165;28;20041;-71
2022/04/04 03:25:12;;;;;;;18.42;10.32;;;4.20;99.90;;;;;;5050794;28;20381;-70
2022/04/04 03:27:39;;;;;;;15.95;9.32;;;4.20;99.90;;;;;;5050528;28;20080;-71
2022/04/04 03:30:07;;;;;;;20.20;10.35;;;4.30;99.90;;;;;;5050775;28;20048;-70
2022/04/04 03:32:33;;;;;;;21.42;10.93;;;4.30;99.90;;;;;;5050110;28;20079;-71
2022/04/04 03:34:59;;;;;;;23.63;11.00;;;4.30;99.90;;;;;;5050418;28;20053;-71
2022/04/04 03:37:26;;;;;;;19.52;10.07;;;4.40;99.90;;;;;;5016115;28;20147;-71
2022/04/04 03:39:52;;;;;;;18.15;10.65;;;4.40;99.90;;;;;;5049501;28;20075;-70
2022/04/04 03:42:19;;;;;;;21.58;11.18;;;4.40;99.90;;;;;;5050604;28;20086;-71
2022/04/04 03:44:44;;;;;;;18.52;11.70;;;4.40;99.90;;;;;;5050500;28;20045;-72
2022/04/04 03:47:10;;;;;;;22.38;10.77;;;4.40;99.90;;;;;;5049965;28;20041;-69
2022/04/04 03:49:37;;;;;;;22.98;11.43;;;4.40;99.90;;;;;;5050172;28;20048;-71
2022/04/04 03:52:03;;;;;;;22.40;11.20;;;4.70;99.90;;;;;;5050375;28;20072;-72
2022/04/04 03:54:30;;;;;;;29.67;10.27;;;4.40;99.90;;;;;;5031831;28;20136;-73
2022/04/04 03:56:56;;;;;;;23.42;10.25;;;4.50;99.90;;;;;;5049920;28;20057;-70
2022/04/04 03:59:22;;;;;;;16.50;10.50;;;4.90;99.90;;;;;;5049945;28;20056;-71
2022/04/04 04:01:48;;;;;;;23.73;13.00;;;4.50;99.90;;;;;;5049257;28;20170;-72
2022/04/04 04:04:13;;;;;;;22.48;11.60;;;4.50;99.90;;;;;;5031233;28;20053;-72
2022/04/04 04:06:39;;;;;;;29.15;12.25;;;4.50;99.90;;;;;;5049817;28;20044;-73
2022/04/04 04:09:05;;;;;;;25.10;11.95;;;4.50;99.90;;;;;;5031332;28;20522;-71
2022/04/04 04:11:30;;;;;;;25.00;12.10;;;4.50;99.90;;;;;;5049850;28;20126;-73
2022/04/04 04:13:57;;;;;;;23.08;12.52;;;4.60;99.90;;;;;;5049839;28;20506;-70
2022/04/04 04:16:23;;;;;;;27.30;12.85;;;4.50;99.90;;;;;;5050091;28;20049;-71
2022/04/04 04:18:49;;;;;;;24.08;12.07;;;4.60;99.90;;;;;;5049477;28;20605;-71
2022/04/04 04:21:15;;;;;;;15.43;9.85;;;4.70;99.90;;;;;;5049705;28;20057;-71
2022/04/04 04:23:43;;;;;;;26.48;11.68;;;4.70;99.90;;;;;;5049830;28;20045;-70
2022/04/04 04:26:11;;;;;;;18.25;8.15;;;4.70;99.90;;;;;;5031127;28;20585;-72
2022/04/04 04:28:37;;;;;;;16.20;9.18;;;4.80;99.90;;;;;;5030870;28;20049;-69
2022/04/04 04:31:03;;;;;;;19.70;10.13;;;4.80;99.90;;;;;;5049725;28;20044;-71
2022/04/04 04:33:29;;;;;;;21.92;11.02;;;4.80;99.90;;;;;;5049651;28;20041;-71
2022/04/04 04:35:55;;;;;;;19.95;11.55;;;4.80;99.90;;;;;;5030801;28;20087;-70
2022/04/04 04:38:20;;;;;;;19.42;11.63;;;5.50;99.90;;;;;;5049404;28;20084;-73
2022/04/04 04:40:46;;;;;;;15.48;10.02;;;4.90;99.90;;;;;;5048647;28;20045;-72
2022/04/04 04:43:12;;;;;;;20.45;10.77;;;4.90;99.90;;;;;;5049354;28;20038;-71
2022/04/04 04:45:38;;;;;;;19.20;9.23;;;4.90;99.90;;;;;;5031489;28;20511;-72
2022/04/04 04:48:05;;;;;;;23.73;11.88;;;4.90;99.90;;;;;;5049457;28;20074;-71
2022/04/04 04:50:31;;;;;;;24.67;11.90;;;4.90;99.90;;;;;;5048585;28;20057;-71
2022/04/04 04:52:58;;;;;;;19.55;11.40;;;4.90;99.90;;;;;;5049569;28;20464;-72
2022/04/04 04:55:24;;;;;;;20.25;10.98;;;5.10;99.90;;;;;;5049488;28;20049;-71
2022/04/04 04:57:52;;;;;;;22.02;12.32;;;4.80;99.90;;;;;;5031097;28;20103;-72
2022/04/04 05:00:21;;;;;;;17.08;9.27;;;4.80;99.90;;;;;;5048897;28;20045;-71
2022/04/04 05:03:24;;;;;;;18.75;9.63;;;4.80;99.90;;;;;;5049380;28;20068;-71
2022/04/04 05:05:32;;;;;;;17.92;10.35;;;4.80;99.90;;;;;;5048393;28;20072;-70
2022/04/04 05:07:58;;;;;;;14.77;8.95;;;5.10;99.90;;;;;;5049265;28;20076;-70
2022/04/04 05:10:24;;;;;;;14.18;5.75;;;5.70;99.90;;;;;;5030910;28;20051;-70
2022/04/04 05:12:49;;;;;;;18.80;9.38;;;4.90;99.90;;;;;;5049104;28;20033;-71
2022/04/04 05:15:17;;;;;;;17.08;8.45;;;4.90;99.90;;;;;;5049075;28;20439;-71
2022/04/04 05:17:42;;;;;;;16.85;8.77;;;4.90;99.90;;;;;;5049206;28;20464;-72
2022/04/04 05:20:09;;;;;;;11.23;7.55;;;4.90;99.90;;;;;;5049058;28;20088;-71
2022/04/04 05:22:35;;;;;;;15.73;8.48;;;4.90;99.90;;;;;;5048088;28;20135;-69
2022/04/04 05:25:00;;;;;;;13.40;6.93;;;4.90;99.90;;;;;;5049265;28;20102;-72
2022/04/04 05:27:26;;;;;;;20.45;7.88;;;4.90;99.90;;;;;;5048943;28;20041;-71
2022/04/04 05:29:52;;;;;;;9.15;5.70;;;4.90;99.90;;;;;;5031133;28;20065;-71
2022/04/04 05:32:19;;;;;;;16.65;6.60;;;5.00;99.90;;;;;;5048409;28;20076;-72
2022/04/04 05:34:45;;;;;;;14.13;5.60;;;5.00;99.90;;;;;;5048690;28;20095;-71
2022/04/04 05:37:12;;;;;;;11.65;5.85;;;5.00;99.90;;;;;;5030362;28;20041;-70
2022/04/04 05:39:38;;;;;;;15.68;7.22;;;4.90;99.90;;;;;;5048861;28;20411;-71
2022/04/04 05:42:04;;;;;;;11.55;6.15;;;4.90;99.90;;;;;;5048906;28;20045;-72
2022/04/04 05:44:32;;;;;;;11.18;5.35;;;5.00;99.90;;;;;;5048876;28;20040;-72
2022/04/04 05:46:58;;;;;;;11.85;6.40;;;5.00;99.90;;;;;;5030658;28;20057;-72
2022/04/04 05:49:24;;;;;;;9.40;4.63;;;4.90;99.90;;;;;;5048734;28;20202;-72
2022/04/04 05:51:50;;;;;;;13.30;6.53;;;4.90;99.90;;;;;;5033876;28;20139;-71
2022/04/04 05:54:16;;;;;;;8.98;5.22;;;4.90;99.90;;;;;;5052040;28;20056;-73
2022/04/04 05:56:44;;;;;;;10.30;4.72;;;4.80;99.90;;;;;;5052059;28;20053;-72
2022/04/04 05:59:13;;;;;;;11.00;4.10;;;4.80;99.90;;;;;;5052231;28;20053;-73
2022/04/04 06:01:39;;;;;;;11.43;5.28;;;4.80;99.90;;;;;;5051808;28;20052;-73
2022/04/04 06:04:05;;;;;;;13.38;4.85;;;4.80;99.90;;;;;;5051855;28;20546;-71
2022/04/04 06:06:31;;;;;;;6.30;3.40;;;4.80;99.90;;;;;;5051801;28;20045;-73
2022/04/04 06:08:57;;;;;;;7.82;4.38;;;4.70;99.90;;;;;;5051683;28;20037;-72
2022/04/04 06:11:22;;;;;;;9.75;4.30;;;4.70;99.90;;;;;;5052316;28;20393;-73
2022/04/04 06:13:48;;;;;;;7.32;3.58;;;4.70;99.90;;;;;;5033664;28;20040;-72
2022/04/04 06:16:14;;;;;;;5.38;2.80;;;4.60;99.90;;;;;;5051716;28;20051;-73
2022/04/04 06:18:40;;;;;;;8.02;3.90;;;4.60;99.90;;;;;;5052141;28;20041;-73
2022/04/04 06:21:06;;;;;;;5.72;2.30;;;4.60;99.90;;;;;;5052408;28;20041;-72
2022/04/04 06:23:33;;;;;;;8.65;3.00;;;4.50;99.90;;;;;;5033900;28;20041;-73
2022/04/04 06:26:04;;;;;;;6.47;2.42;;;4.50;99.90;;;;;;5051499;28;20041;-74
2022/04/04 06:28:31;;;;;;;9.88;2.90;;;4.60;99.90;;;;;;5051568;28;20408;-72
2022/04/04 06:30:58;;;;;;;6.60;2.38;;;4.60;99.90;;;;;;5033708;28;20461;-74
2022/04/04 06:33:23;;;;;;;6.00;2.53;;;4.50;99.90;;;;;;5051787;28;20088;-73
2022/04/04 06:35:50;;;;;;;6.10;2.00;;;4.60;99.90;;;;;;5032562;28;20092;-75
2022/04/04 06:38:18;;;;;;;11.70;3.05;;;4.60;99.90;;;;;;5033881;28;20049;-72
2022/04/04 06:40:44;;;;;;;5.88;2.00;;;4.60;99.90;;;;;;5050946;28;20140;-73
2022/04/04 06:43:10;;;;;;;4.50;1.92;;;4.50;99.90;;;;;;5051170;28;20485;-73
2022/04/04 06:45:35;;;;;;;5.05;2.30;;;4.50;99.90;;;;;;5051376;28;20044;-73
2022/04/04 06:48:01;;;;;;;4.32;1.83;;;4.60;99.90;;;;;;5051474;28;20090;-73
2022/04/04 06:50:27;;;;;;;4.13;2.05;;;4.60;99.90;;;;;;5033716;28;20052;-73
2022/04/04 06:52:52;;;;;;;7.45;3.30;;;4.60;99.90;;;;;;5051769;28;20307;-73
2022/04/04 06:55:19;;;;;;;6.88;3.03;;;4.60;99.90;;;;;;5051137;28;20040;-73
2022/04/04 06:57:45;;;;;;;4.05;2.40;;;4.60;99.90;;;;;;5050991;28;20421;-73
2022/04/04 07:00:12;;;;;;;7.03;2.75;;;4.70;99.90;;;;;;5051525;28;20065;-73
2022/04/04 07:02:38;;;;;;;8.82;2.75;;;4.60;99.90;;;;;;5031884;28;20449;-72
2022/04/04 07:05:05;;;;;;;6.32;3.47;;;4.70;99.90;;;;;;5031754;28;20454;-73
2022/04/04 07:07:33;;;;;;;7.40;4.32;;;4.70;99.90;;;;;;5050946;28;20511;-74
2022/04/04 07:09:59;;;;;;;9.15;4.28;;;4.80;99.90;;;;;;5050426;28;20049;-73
2022/04/04 07:12:25;;;;;;;8.02;4.13;;;4.80;99.90;;;;;;5050448;28;20492;-74
2022/04/04 07:14:52;;;;;;;6.28;3.15;;;4.80;99.90;;;;;;5050324;28;20127;-74
2022/04/04 07:17:17;;;;;;;10.23;4.15;;;4.90;99.90;;;;;;5050324;28;20134;-73
2022/04/04 07:19:43;;;;;;;8.30;4.00;;;4.90;99.90;;;;;;5050228;28;20100;-71
2022/04/04 07:22:10;;;;;;;11.30;4.38;;;6.00;99.90;;;;;;5050801;28;20056;-70
2022/04/04 07:24:37;;;;;;;6.85;3.85;;;5.00;99.90;;;;;;5050723;28;20063;-71
2022/04/04 07:27:03;;;;;;;10.95;4.55;;;5.00;99.90;;;;;;5049793;28;20492;-72
2022/04/04 07:29:29;;;;;;;13.55;5.15;;;5.00;99.90;;;;;;5050463;28;20091;-69
2022/04/04 07:31:55;;;;;;;17.80;5.85;;;5.00;99.90;;;;;;5032234;28;20088;-70
2022/04/04 07:34:21;;;;;;;7.80;4.90;;;5.10;99.90;;;;;;5050391;28;20427;-73
2022/04/04 07:36:47;;;;;;;13.05;6.43;;;5.10;99.90;;;;;;5049780;28;20108;-69
2022/04/04 07:39:12;;;;;;;10.15;6.07;;;5.10;99.90;;;;;;5049531;28;20052;-71
2022/04/04 07:41:38;;;;;;;9.23;5.07;;;5.50;99.90;;;;;;5050140;28;20127;-73
2022/04/04 07:44:05;;;;;;;8.77;4.43;;;5.80;99.90;;;;;;5049930;28;20047;-71
2022/04/04 07:46:31;;;;;;;15.38;6.25;;;5.20;99.90;;;;;;5050286;28;20056;-71
2022/04/04 07:49:00;;;;;;;12.35;6.38;;;5.20;99.90;;;;;;5049776;28;20045;-71
2022/04/04 07:51:26;;;;;;;8.07;4.82;;;5.20;99.90;;;;;;5050296;28;20048;-71
2022/04/04 07:53:52;;;;;;;8.93;4.43;;;5.30;99.90;;;;;;5049766;28;20400;-71
2022/04/04 07:56:19;;;;;;;9.13;5.05;;;5.30;99.90;;;;;;5049794;28;20049;-72
2022/04/04 07:58:45;;;;;;;14.18;4.78;;;5.40;99.90;;;;;;5049487;28;20049;-71
2022/04/04 08:01:14;;;;;;;11.02;5.07;;;5.40;99.90;;;;;;5050072;28;20462;-77
2022/04/04 08:03:40;;;;;;;12.32;5.22;;;5.40;99.90;;;;;;5032078;28;20131;-74
2022/04/04 08:06:05;;;;;;;9.77;5.18;;;5.40;99.90;;;;;;5048501;28;20156;-73
2022/04/04 08:08:31;;;;;;;13.93;5.63;;;5.40;99.90;;;;;;5049350;28;20051;-74
2022/04/04 08:11:02;;;;;;;9.82;5.85;;;5.50;99.90;;;;;;5049319;28;20041;-72
2022/04/04 08:13:27;;;;;;;12.25;5.70;;;5.50;99.90;;;;;;5049000;28;20045;-73
2022/04/04 08:15:54;;;;;;;8.10;3.95;;;6.30;99.90;;;;;;5048710;28;20127;-75
2022/04/04 08:18:19;;;;;;;6.93;3.38;;;6.10;99.90;;;;;;5049703;28;20051;-74
2022/04/04 08:20:45;;;;;;;11.75;4.28;;;6.20;99.90;;;;;;5049212;28;20547;-74
2022/04/04 08:23:11;;;;;;;11.25;5.03;;;6.50;99.90;;;;;;5050035;28;20040;-74
2022/04/04 08:25:36;;;;;;;10.82;3.60;;;5.60;99.90;;;;;;5049676;28;20037;-75
2022/04/04 08:28:02;;;;;;;8.43;4.10;;;6.50;99.90;;;;;;5031464;28;20148;-74
2022/04/04 08:30:29;;;;;;;7.95;4.10;;;5.60;99.90;;;;;;5049916;28;20484;-78
2022/04/04 08:33:01;;;;;;;6.45;3.80;;;5.60;99.90;;;;;;5049930;28;20075;-76
2022/04/04 08:35:26;;;;;;;10.20;3.72;;;5.70;99.90;;;;;;5049314;28;20045;-75
2022/04/04 08:37:52;;;;;;;8.75;3.63;;;5.70;99.90;;;;;;5031568;28;20044;-75
2022/04/04 08:40:18;;;;;;;9.75;3.92;;;6.70;99.90;;;;;;5049776;28;20135;-75
2022/04/04 08:42:45;;;;;;;4.53;3.00;;;5.70;99.90;;;;;;5049748;28;20076;-75
2022/04/04 08:45:11;;;;;;;6.30;3.13;;;5.70;99.90;;;;;;5031628;28;20115;-77
2022/04/04 08:47:38;;;;;;;4.70;2.30;;;5.80;99.90;;;;;;5049484;28;20033;-75
2022/04/04 08:50:05;;;;;;;6.15;3.40;;;6.10;99.90;;;;;;5048583;28;20041;-75
2022/04/04 08:52:31;;;;;;;5.38;2.53;;;5.80;99.90;;;;;;5049260;28;20041;-75
2022/04/04 08:54:57;;;;;;;4.95;2.47;;;6.70;99.90;;;;;;5048936;28;20538;-75
2022/04/04 08:57:23;;;;;;;5.53;2.38;;;5.90;99.90;;;;;;5049210;28;20057;-76
2022/04/04 08:59:48;;;;;;;4.13;2.03;;;5.90;99.90;;;;;;5033815;28;20050;-75
2022/04/04 09:02:15;;;;;;;7.80;3.10;;;7.10;99.90;;;;;;5011660;28;20058;-75
2022/04/04 09:04:41;;;;;;;4.95;2.33;;;6.30;99.90;;;;;;5029476;28;20139;-74
2022/04/04 09:07:11;;;;;;;3.60;1.98;;;6.00;99.90;;;;;;5032993;28;20068;-72
2022/04/04 09:09:40;;;;;;;5.53;2.10;;;6.00;99.90;;;;;;5045854;28;20104;-73
2022/04/04 09:12:11;;;;;;;5.20;2.17;;;6.00;99.90;;;;;;5049306;28;20049;-75
2022/04/04 09:14:43;;;;;;;4.88;1.90;;;6.00;99.90;;;;;;5049241;28;20060;-75
2022/04/04 09:17:10;;;;;;;6.70;1.85;;;6.00;99.90;;;;;;5049119;28;20044;-75
2022/04/04 09:19:36;;;;;;;4.00;2.03;;;6.20;99.90;;;;;;5049366;28;20041;-75
2022/04/04 09:22:10;;;;;;;10.27;1.70;;;6.10;99.90;;;;;;5049458;28;20127;-76
2022/04/04 09:24:52;;;;;;;5.13;1.77;;;6.10;99.90;;;;;;5049733;28;20041;-76
2022/04/04 09:27:30;;;;;;;4.07;1.75;;;6.10;99.90;;;;;;5052578;28;20068;-76
2022/04/04 09:30:07;;;;;;;4.63;2.00;;;6.10;99.90;;;;;;5051953;28;20048;-76
2022/04/04 09:32:38;;;;;;;4.05;1.73;;;6.10;99.90;;;;;;5052549;28;20056;-75
2022/04/04 09:35:12;;;;;;;6.30;1.88;;;6.10;99.90;;;;;;5052649;28;20565;-76
2022/04/04 09:37:40;;;;;;;4.80;2.08;;;6.20;99.90;;;;;;5035211;28;20041;-77
2022/04/04 09:40:25;;;;;;;4.80;1.80;;;6.20;99.90;;;;;;5033138;28;20049;-75
2022/04/04 09:42:51;;;;;;;4.35;1.73;;;6.20;99.90;;;;;;5032690;28;20045;-75
2022/04/04 09:45:17;;;;;;;5.85;2.10;;;7.20;99.90;;;;;;5034904;28;20095;-75
2022/04/04 09:47:51;;;;;;;4.63;2.08;;;6.20;99.90;;;;;;5052604;28;20098;-75
2022/04/04 09:50:31;;;;;;;4.20;2.13;;;6.20;99.90;;;;;;5052734;28;20389;-76
2022/04/04 09:52:58;;;;;;;6.07;2.15;;;6.20;99.90;;;;;;5051739;28;20103;-76
2022/04/04 09:55:35;;;;;;;5.20;2.55;;;6.30;99.90;;;;;;5052592;28;20045;-76
2022/04/04 09:58:04;;;;;;;3.45;1.77;;;6.30;99.90;;;;;;5052063;28;20053;-76
2022/04/04 10:00:29;;;;;;;3.40;1.80;;;6.30;99.90;;;;;;5052629;28;20099;-77
2022/04/04 10:02:57;;;;;;;4.22;1.40;;;6.40;99.90;;;;;;5033883;28;20072;-75
2022/04/04 10:05:26;;;;;;;4.05;1.58;;;6.30;99.90;;;;;;5052207;28;20037;-77
2022/04/04 10:07:56;;;;;;;4.50;1.48;;;6.40;99.90;;;;;;5052036;28;20397;-81
2022/04/04 10:10:27;;;;;;;6.55;2.00;;;6.40;99.90;;;;;;5052324;28;20037;-78
2022/04/04 10:12:53;;;;;;;3.72;1.40;;;6.40;99.90;;;;;;5052259;28;20048;-73
2022/04/04 10:15:21;;;;;;;11.77;1.90;;;6.40;99.90;;;;;;5052630;28;20045;-76
2022/04/04 10:17:48;;;;;;;4.15;1.77;;;6.40;99.90;;;;;;5052108;28;20048;-76
2022/04/04 10:20:14;;;;;;;6.20;2.20;;;6.50;99.90;;;;;;5052238;28;20597;-75
2022/04/04 10:22:40;;;;;;;5.60;1.92;;;6.50;99.90;;;;;;5052183;28;20456;-76
2022/04/04 10:25:07;;;;;;;4.68;1.80;;;6.50;99.90;;;;;;5052357;28;20037;-80
2022/04/04 10:27:37;;;;;;;4.60;1.70;;;6.50;99.90;;;;;;5051378;28;20268;-76
2022/04/04 10:30:08;;;;;;;8.57;1.50;;;6.50;99.90;;;;;;5051787;28;20041;-76
2022/04/04 10:32:34;;;;;;;2.83;1.58;;;6.40;99.90;;;;;;5051729;28;20087;-76
2022/04/04 10:35:12;;;;;;;4.55;1.45;;;6.50;99.90;;;;;;5051381;28;20095;-75
2022/04/04 10:37:46;;;;;;;3.75;1.55;;;6.50;99.90;;;;;;5050533;28;20044;-77
2022/04/04 10:40:26;;;;;;;3.30;1.20;;;6.60;99.90;;;;;;5051418;28;20100;-77
2022/04/04 10:43:01;;;;;;;3.30;2.00;;;6.60;99.90;;;;;;5051711;28;20045;-76
2022/04/04 10:45:29;;;;;;;2.65;1.23;;;6.60;99.90;;;;;;5051430;28;20081;-77
2022/04/04 10:48:04;;;;;;;3.42;1.60;;;6.60;99.90;;;;;;5051552;28;20059;-79
2022/04/04 10:50:33;;;;;;;2.90;1.10;;;6.70;99.90;;;;;;5051688;28;20049;-77
2022/04/04 10:53:03;;;;;;;2.72;1.27;;;7.30;99.90;;;;;;5051409;28;20072;-76
2022/04/04 10:55:36;;;;;;;3.92;1.00;;;6.70;99.90;;;;;;5031692;28;20045;-77
2022/04/04 10:58:16;;;;;;;3.92;1.30;;;6.80;99.90;;;;;;5013790;28;20061;-79
2022/04/04 11:01:07;;;;;;;1.52;0.82;;;6.80;99.90;;;;;;5013797;28;20045;-77
2022/04/04 11:03:41;;;;;;;4.22;1.45;;;6.80;99.90;;;;;;5031623;28;20049;-78
2022/04/04 11:09:04;;;;;;;4.03;0.77;;;6.90;99.90;;;;;;5050849;28;20070;-76
2022/04/04 11:11:47;;;;;;;1.52;0.57;;;7.00;99.90;;;;;;5033071;28;20052;-77
2022/04/04 11:14:19;;;;;;;2.50;0.90;;;7.00;99.90;;;;;;5051216;28;20047;-78
2022/04/04 11:20:00;;;;;;;1.40;0.60;;;7.10;99.90;;;;;;5032485;28;20503;-81
2022/04/04 11:22:31;;;;;;;3.22;0.50;;;7.10;99.90;;;;;;5050902;28;20055;-77
2022/04/04 11:25:03;;;;;;;2.22;0.68;;;7.20;99.90;;;;;;5032964;28;20048;-77
2022/04/04 11:27:33;;;;;;;1.38;0.55;;;7.20;99.90;;;;;;5050271;28;20098;-78
2022/04/04 11:30:05;;;;;;;0.93;0.65;;;7.30;99.90;;;;;;5050653;28;20037;-78
2022/04/04 11:32:34;;;;;;;1.33;0.60;;;8.10;99.90;;;;;;5050770;28;20119;-79
2022/04/04 11:35:23;;;;;;;3.72;0.52;;;7.30;99.90;;;;;;5050461;28;20044;-83
2022/04/04 11:37:48;;;;;;;2.28;0.63;;;7.30;99.90;;;;;;5015672;28;20047;-79
2022/04/04 11:40:23;;;;;;;1.38;0.45;;;7.30;99.90;;;;;;5050727;28;20156;-83
2022/04/04 11:42:51;;;;;;;1.60;0.60;;;7.40;99.90;;;;;;5050730;28;20044;-79
2022/04/04 11:45:25;;;;;;;3.33;0.55;;;7.40;99.90;;;;;;5050340;28;20051;-88
2022/04/04 11:47:56;;;;;;;1.20;0.40;;;7.40;99.90;;;;;;5049998;28;20033;-79
2022/04/04 11:50:25;;;;;;;1.98;0.65;;;7.40;99.90;;;;;;5050630;28;20045;-85
2022/04/04 11:53:00;;;;;;;3.70;0.70;;;7.50;99.90;;;;;;5049588;28;20040;-84
2022/04/04 11:55:27;;;;;;;12.18;0.80;;;7.40;99.90;;;;;;5050336;28;20057;-81
2022/04/04 11:57:59;;;;;;;0.60;0.30;;;7.50;99.90;;;;;;5031774;28;20531;-85
2022/04/04 12:00:35;;;;;;;0.98;0.47;;;7.50;99.90;;;;;;5050188;28;20068;-80
2022/04/04 12:03:12;;;;;;;1.85;0.60;;;8.00;99.90;;;;;;5049884;28;20048;-79
2022/04/04 12:05:39;;;;;;;0.95;0.40;;;7.50;99.90;;;;;;5031029;28;20416;-85
2022/04/04 12:08:06;;;;;;;0.70;0.43;;;7.60;99.90;;;;;;5049616;28;20091;-81
2022/04/04 12:10:32;;;;;;;1.55;0.60;;;7.50;99.90;;;;;;5045256;28;20075;-80
2022/04/04 12:13:05;;;;;;;0.57;0.43;;;7.60;99.90;;;;;;5049837;28;20049;-78
2022/04/04 12:15:34;;;;;;;1.83;0.57;;;7.60;99.90;;;;;;5014222;28;20052;-77
2022/04/04 12:18:02;;;;;;;3.15;0.70;;;7.70;99.90;;;;;;5049552;28;20072;-78
2022/04/04 12:20:45;;;;;;;1.85;0.50;;;7.70;99.90;;;;;;5047185;28;20051;-77
2022/04/04 12:26:09;;;;;;;0.80;0.45;;;7.80;99.90;;;;;;5047787;28;20495;-77
2022/04/04 12:28:40;;;;;;;0.93;0.60;;;7.80;99.90;;;;;;5048171;28;20527;-81
2022/04/04 12:31:18;;;;;;;1.70;0.45;;;7.80;99.90;;;;;;5048194;28;20128;-83
2022/04/04 12:33:51;;;;;;;1.10;0.70;;;7.90;99.90;;;;;;5048480;28;20071;-77
2022/04/04 12:36:32;;;;;;;1.20;0.80;;;7.90;99.90;;;;;;5048149;28;20519;-76
2022/04/04 12:38:58;;;;;;;1.77;1.20;;;7.90;99.90;;;;;;5013462;28;20540;-78
2022/04/04 12:41:25;;;;;;;0.63;0.40;;;8.00;99.90;;;;;;5047721;28;20597;-78
2022/04/04 12:44:02;;;;;;;1.05;0.70;;;8.00;99.90;;;;;;5048100;28;20442;-78
2022/04/04 12:46:30;;;;;;;1.52;0.60;;;8.00;99.90;;;;;;5045882;28;20450;-78
2022/04/04 12:49:10;;;;;;;1.60;0.85;;;8.90;99.90;;;;;;5048106;28;20088;-79
2022/04/04 12:51:36;;;;;;;1.00;0.52;;;8.00;99.90;;;;;;5029859;28;20052;-81
2022/04/04 12:54:02;;;;;;;2.95;0.80;;;8.10;99.90;;;;;;5043632;28;20056;-82
2022/04/04 12:56:29;;;;;;;1.42;0.93;;;8.20;99.90;;;;;;5030173;28;20512;-77
2022/04/04 12:59:16;;;;;;;1.55;0.80;;;8.20;99.90;;;;;;5047899;28;20056;-77
2022/04/04 13:01:42;;;;;;;1.67;0.90;;;8.20;99.90;;;;;;5050591;28;20119;-78
2022/04/04 13:04:21;;;;;;;2.35;1.15;;;8.20;99.90;;;;;;5051702;28;20450;-78
2022/04/04 13:06:48;;;;;;;2.17;1.08;;;8.20;99.90;;;;;;5051966;28;20041;-80